map of COO home
COO - Airport
Location
City:  Cotonou, Littoral, Benin
Name:Cardinal Bernardin Gantin International Airport
Old (Alt.):Cadjehoun Airport
ICAO:DBBB
IATA:COO

Details
Type:Airport (Aerodrome, Airfield)
Use:Public/Civil, Military, International (customs port of entry)
Latitude:621'26"N (6.357228)
Longitude:223'04"E (2.384353)
Datum:WGS 1984
Elevation:19 ft (6 m)
Variation:2.43W (WMM2015 magnetic declination)
0.10 annual change
Runways:1
Longest:7874 × 148 ft (2400 × 45 m), paved

Time
Time Zone:UTC+1
Local Time:

Weather
METAR:DBBB 161900Z 32003KT 270V350 6000 FEW011 25/23 Q1012 NOSIG
TAF:DBBB 161700Z 1618/1724 34003KT 9999 SCT013
TEMPO 1704/1709 4000 BR PROB30
TEMPO 1714/1718 BKN012 FEW023CB

Related Locations
Nearby:
Farthest:FUN: 12179 mi / 19600 km
Funafuti Atoll [Intl], TV

Find:

   beyond  
but within

Other Information
Maps:
NOTAMs:
Links:
Sources:

  
  • flag of Benin
  

Sectional Chart

Flight Planning
at skyvector.com

Satellite Image

Google Maps Satellite view

 

Copyright © 2004-2018 Karl L. Swartz. All rights reserved.
The Great Circle Mapper name and logo are trademarks of the Great Circle Mapper.
All other trademarks mentioned herein belong to their respective owners.
Please see credits for attibutions and further copyright information.

  Follow gcmap on Facebook Follow gcmap on Twitter Follow gcmap on Google+ GCmap on LinkedIn

hCard Microformat

Geo Microformat